createdAt,value
2022-10-11T00:01:53.604Z,34.88
2022-10-11T00:04:20.468Z,32.78
2022-10-11T00:06:47.654Z,31.33
2022-10-11T00:09:16.255Z,40.83
2022-10-11T00:11:43.290Z,33.83
2022-10-11T00:14:10.339Z,33.78
2022-10-11T00:16:41.127Z,42.92
2022-10-11T00:19:08.044Z,35.92
2022-10-11T00:21:34.876Z,29.25
2022-10-11T00:24:01.777Z,32.25
2022-10-11T00:26:28.848Z,32.60
2022-10-11T00:28:55.949Z,29.77
2022-10-11T00:31:23.517Z,32.83
2022-10-11T00:33:50.354Z,35.22
2022-10-11T00:36:17.421Z,31.25
2022-10-11T00:38:45.411Z,37.30
2022-10-11T00:41:13.314Z,30.00
2022-10-11T00:43:40.484Z,37.08
2022-10-11T00:46:26.225Z,29.73
2022-10-11T00:49:04.922Z,32.75
2022-10-11T00:51:46.140Z,30.20
2022-10-11T00:54:16.677Z,28.58
2022-10-11T00:56:46.581Z,33.10
2022-10-11T00:59:19.318Z,34.38
2022-10-11T01:01:46.369Z,31.48
2022-10-11T01:04:13.307Z,32.90
2022-10-11T01:06:40.711Z,33.25
2022-10-11T01:09:07.944Z,31.88
2022-10-11T01:11:37.965Z,36.25
2022-10-11T01:14:17.963Z,40.10
2022-10-11T01:16:53.431Z,35.55
2022-10-11T01:19:26.243Z,39.80
2022-10-11T01:22:24.122Z,35.50
2022-10-11T01:25:06.063Z,38.65
2022-10-11T01:28:01.845Z,35.20
2022-10-11T01:30:31.923Z,36.90
2022-10-11T01:33:13.477Z,34.85
2022-10-11T01:35:59.285Z,34.95
2022-10-11T01:38:47.004Z,30.20
2022-10-11T01:41:42.142Z,31.58
2022-10-11T01:44:11.307Z,37.05
2022-10-11T01:46:38.452Z,34.75
2022-10-11T01:49:06.002Z,32.13
2022-10-11T01:51:54.734Z,33.72
2022-10-11T01:55:09.023Z,34.25
2022-10-11T01:58:14.306Z,31.92
2022-10-11T02:01:05.510Z,36.55
2022-10-11T02:03:43.850Z,35.60
2022-10-11T02:06:54.359Z,35.83
2022-10-11T02:09:34.058Z,31.50
2022-10-11T02:12:07.599Z,34.95
2022-10-11T02:14:42.979Z,37.05
2022-10-11T02:17:18.427Z,40.65
2022-10-11T02:19:50.382Z,31.27
2022-10-11T02:22:35.363Z,31.25
2022-10-11T02:25:08.837Z,33.67
2022-10-11T02:27:39.887Z,35.00
2022-10-11T02:30:08.908Z,29.40
2022-10-11T02:32:40.594Z,31.00
2022-10-11T02:35:08.741Z,31.38
2022-10-11T02:37:59.229Z,33.15
2022-10-11T02:40:35.972Z,31.80
2022-10-11T02:43:14.011Z,31.17
2022-10-11T02:45:50.091Z,30.00
2022-10-11T02:48:18.148Z,30.20
2022-10-11T02:50:45.391Z,30.48
2022-10-11T02:53:12.312Z,29.08
2022-10-11T02:55:39.753Z,28.95
2022-10-11T02:58:06.786Z,34.20
2022-10-11T03:00:33.836Z,29.25
2022-10-11T03:03:00.788Z,24.63
2022-10-11T03:05:27.751Z,32.65
2022-10-11T03:07:54.590Z,28.27
2022-10-11T03:10:21.581Z,26.02
2022-10-11T03:12:49.558Z,27.38
2022-10-11T03:15:16.576Z,32.08
2022-10-11T03:17:43.396Z,28.30
2022-10-11T03:20:10.594Z,29.67
2022-10-11T03:22:37.460Z,32.80
2022-10-11T03:25:05.077Z,30.95
2022-10-11T03:27:33.420Z,33.20
2022-10-11T03:30:00.543Z,31.25
2022-10-11T03:32:27.872Z,28.70
2022-10-11T03:34:54.733Z,36.67
2022-10-11T03:37:21.712Z,33.92
2022-10-11T03:39:48.931Z,38.75
2022-10-11T03:42:15.768Z,36.17
2022-10-11T03:44:42.756Z,35.10
2022-10-11T03:47:10.235Z,33.30
2022-10-11T03:49:41.328Z,32.10
2022-10-11T03:52:10.522Z,35.45
2022-10-11T03:54:37.415Z,39.60
2022-10-11T03:57:04.274Z,30.85
2022-10-11T03:59:31.371Z,34.30
2022-10-11T04:01:58.250Z,31.88
2022-10-11T04:04:25.120Z,35.00
2022-10-11T04:06:52.024Z,32.40
2022-10-11T04:09:18.865Z,32.22
2022-10-11T04:11:45.747Z,31.10
2022-10-11T04:14:12.743Z,35.30
2022-10-11T04:16:40.284Z,41.22
2022-10-11T04:19:07.358Z,32.25
2022-10-11T04:21:34.570Z,39.38
2022-10-11T04:24:01.406Z,34.67
2022-10-11T04:26:28.195Z,34.00
2022-10-11T04:28:55.224Z,33.83
2022-10-11T04:31:22.681Z,30.40
2022-10-11T04:33:49.692Z,36.15
2022-10-11T04:36:16.581Z,36.88
2022-10-11T04:38:43.521Z,38.13
2022-10-11T04:41:12.791Z,29.02
2022-10-11T04:43:39.642Z,29.95
2022-10-11T04:46:07.697Z,33.45
2022-10-11T04:48:34.751Z,32.85
2022-10-11T04:51:01.721Z,35.45
2022-10-11T04:53:28.739Z,30.55
2022-10-11T04:56:01.524Z,29.98
2022-10-11T04:58:29.643Z,33.67
2022-10-11T05:00:56.790Z,35.05
2022-10-11T05:03:24.893Z,34.38
2022-10-11T05:05:53.002Z,30.30
2022-10-11T05:08:23.249Z,29.20
2022-10-11T05:10:57.883Z,27.33
2022-10-11T05:13:25.560Z,27.45
2022-10-11T05:15:52.456Z,31.55
2022-10-11T05:18:20.193Z,26.08
2022-10-11T05:20:47.342Z,27.67
2022-10-11T05:23:14.852Z,28.02
2022-10-11T05:25:41.932Z,29.27
2022-10-11T05:28:08.830Z,33.30
2022-10-11T05:30:35.805Z,31.92
2022-10-11T05:33:02.739Z,27.88
2022-10-11T05:35:29.564Z,30.27
2022-10-11T05:37:56.444Z,31.95
2022-10-11T05:40:23.373Z,34.85
2022-10-11T05:42:50.203Z,31.08
2022-10-11T05:45:17.154Z,30.15
2022-10-11T05:47:44.078Z,30.13
2022-10-11T05:50:11.346Z,27.70
2022-10-11T05:52:38.262Z,42.45
2022-10-11T05:55:05.493Z,43.95
2022-10-11T05:57:32.292Z,36.28
2022-10-11T05:59:59.150Z,38.35
2022-10-11T06:02:26.011Z,43.63
2022-10-11T06:04:52.830Z,33.50
2022-10-11T06:07:19.635Z,34.67
2022-10-11T06:09:46.651Z,37.72
2022-10-11T06:12:16.158Z,39.17
2022-10-11T06:14:43.806Z,33.70
2022-10-11T06:17:11.087Z,28.30
2022-10-11T06:19:37.902Z,33.08
2022-10-11T06:22:04.961Z,39.83
2022-10-11T06:24:31.853Z,41.55
2022-10-11T06:26:58.839Z,154.30
2022-10-11T06:29:25.747Z,45.95
2022-10-11T06:31:52.639Z,33.40
2022-10-11T06:34:19.485Z,28.40
2022-10-11T06:36:46.312Z,31.88
2022-10-11T06:39:13.247Z,29.80
2022-10-11T06:41:40.150Z,22.77
2022-10-11T06:44:10.744Z,31.63
2022-10-11T06:46:40.280Z,30.17
2022-10-11T06:49:07.808Z,33.20
2022-10-11T06:51:35.852Z,36.50
2022-10-11T06:54:03.772Z,43.85
2022-10-11T06:56:31.727Z,34.17
2022-10-11T06:58:59.727Z,30.83
2022-10-11T07:01:26.931Z,29.40
2022-10-11T07:03:55.612Z,40.50
2022-10-11T07:06:25.340Z,35.10
2022-10-11T07:08:53.071Z,31.25
2022-10-11T07:11:26.457Z,35.92
2022-10-11T07:13:59.655Z,39.10
2022-10-11T07:16:27.595Z,34.05
2022-10-11T07:19:00.218Z,33.83
2022-10-11T07:21:30.876Z,35.90
2022-10-11T07:23:57.864Z,35.90
2022-10-11T07:26:24.922Z,33.38
2022-10-11T07:28:52.244Z,44.65
2022-10-11T07:31:22.855Z,40.28
2022-10-11T07:33:49.924Z,41.80
2022-10-11T07:36:16.985Z,39.00
2022-10-11T07:38:46.393Z,34.97
2022-10-11T07:41:14.055Z,35.97
2022-10-11T07:43:41.071Z,41.00
2022-10-11T07:46:08.278Z,36.38
2022-10-11T07:48:36.629Z,31.75
2022-10-11T07:51:10.126Z,38.47
2022-10-11T07:53:42.337Z,25.05
2022-10-11T07:56:10.639Z,31.63
2022-10-11T07:58:37.599Z,36.63
2022-10-11T08:01:04.550Z,32.92
2022-10-11T08:03:31.419Z,35.90
2022-10-11T08:06:07.541Z,35.92
2022-10-11T08:08:34.929Z,43.88
2022-10-11T08:11:02.110Z,45.08
2022-10-11T08:13:29.033Z,54.90
2022-10-11T08:15:56.184Z,57.30
2022-10-11T08:18:23.091Z,53.75
2022-10-11T08:20:49.982Z,49.75
2022-10-11T08:23:18.971Z,36.40
2022-10-11T08:25:48.345Z,35.33
2022-10-11T08:28:18.071Z,34.88
2022-10-11T08:30:53.228Z,34.35
2022-10-11T08:33:21.681Z,33.40
2022-10-11T08:35:49.925Z,32.22
2022-10-11T08:38:17.153Z,42.03
2022-10-11T08:41:20.388Z,35.95
2022-10-11T08:44:20.216Z,29.75
2022-10-11T08:46:53.254Z,33.58
2022-10-11T08:49:27.155Z,29.52
2022-10-11T08:52:04.684Z,30.98
2022-10-11T08:54:49.021Z,31.58
2022-10-11T08:57:23.082Z,37.88
2022-10-11T09:00:00.182Z,48.78
2022-10-11T09:03:09.678Z,37.25
2022-10-11T09:05:51.357Z,49.22
2022-10-11T09:08:36.408Z,30.40
2022-10-11T09:11:08.356Z,36.13
2022-10-11T09:13:52.522Z,37.72
2022-10-11T09:16:47.446Z,47.38
2022-10-11T09:19:34.346Z,28.35
2022-10-11T09:22:39.556Z,31.50
2022-10-11T09:25:27.914Z,25.45
2022-10-11T09:28:19.632Z,20.23
2022-10-11T09:30:49.599Z,29.88
2022-10-11T09:33:38.900Z,30.67
2022-10-11T09:36:25.031Z,22.73
2022-10-11T09:39:06.432Z,27.20
2022-10-11T09:41:55.209Z,25.25
2022-10-11T09:44:24.746Z,19.52
2022-10-11T09:46:54.186Z,22.35
2022-10-11T09:49:25.726Z,23.30
2022-10-11T09:52:01.370Z,32.28
2022-10-11T09:54:42.848Z,37.63
2022-10-11T09:57:40.450Z,32.72
2022-10-11T10:02:47.001Z,29.00
2022-10-11T10:05:18.127Z,35.67
2022-10-11T10:08:05.232Z,32.63
2022-10-11T10:11:09.472Z,29.30
2022-10-11T10:13:54.504Z,27.63
2022-10-11T10:16:27.978Z,31.23
2022-10-11T10:19:01.982Z,32.55
2022-10-11T10:21:39.280Z,25.10
2022-10-11T10:24:09.935Z,22.58
2022-10-11T10:26:38.151Z,24.42
2022-10-11T10:29:11.233Z,30.30
2022-10-11T10:35:13.103Z,29.63
2022-10-11T10:37:53.075Z,28.20
2022-10-11T10:40:36.182Z,33.25
2022-10-11T10:43:03.963Z,31.35
2022-10-11T10:45:57.579Z,24.48
2022-10-11T10:49:12.011Z,28.38
2022-10-11T10:51:44.382Z,28.77
2022-10-11T10:54:29.015Z,23.30
2022-10-11T10:57:01.996Z,39.10
2022-10-11T11:00:03.842Z,33.75
2022-10-11T11:02:49.292Z,38.10
2022-10-11T11:05:37.871Z,36.30
2022-10-11T11:08:19.571Z,52.30
2022-10-11T11:10:56.161Z,55.22
2022-10-11T11:16:20.991Z,40.13
2022-10-11T11:19:34.554Z,37.47
2022-10-11T11:22:27.102Z,38.72
2022-10-11T11:25:12.520Z,29.23
2022-10-11T11:27:58.353Z,30.83
2022-10-11T11:30:46.856Z,31.92
2022-10-11T11:33:32.502Z,29.48
2022-10-11T11:36:06.033Z,28.70
2022-10-11T11:38:46.734Z,26.20
2022-10-11T11:41:36.450Z,30.15
2022-10-11T11:44:37.394Z,23.08
2022-10-11T11:47:11.353Z,32.08
2022-10-11T11:49:45.223Z,32.55
2022-10-11T11:52:25.382Z,32.15
2022-10-11T11:55:09.159Z,41.58
2022-10-11T11:58:11.170Z,32.25
2022-10-11T12:00:55.309Z,33.05
2022-10-11T12:03:28.125Z,34.42
2022-10-11T12:06:13.977Z,31.67
2022-10-11T12:09:06.580Z,29.90
2022-10-11T12:12:00.281Z,28.83
2022-10-11T12:14:33.405Z,30.58
2022-10-11T12:17:08.677Z,27.52
2022-10-11T12:19:37.876Z,29.50
2022-10-11T12:22:37.086Z,37.00
2022-10-11T12:25:10.697Z,38.13
2022-10-11T12:27:48.498Z,29.02
2022-10-11T12:33:13.517Z,37.58
2022-10-11T12:35:50.998Z,36.13
2022-10-11T12:38:34.700Z,34.42
2022-10-11T12:41:10.450Z,34.45
2022-10-11T12:44:19.558Z,34.87
2022-10-11T12:46:55.346Z,38.20
2022-10-11T12:49:28.102Z,38.17
2022-10-11T12:52:04.545Z,40.25
2022-10-11T12:54:56.086Z,44.67
2022-10-11T12:57:46.501Z,41.20
2022-10-11T13:00:29.218Z,29.85
2022-10-11T13:02:58.568Z,36.92
2022-10-11T13:05:45.014Z,40.17
2022-10-11T13:08:22.970Z,33.22
2022-10-11T13:10:49.783Z,33.13
2022-10-11T13:13:22.767Z,34.20
2022-10-11T13:15:51.867Z,47.67
2022-10-11T13:18:18.906Z,43.28
2022-10-11T13:20:45.647Z,38.08
2022-10-11T13:23:30.550Z,39.17
2022-10-11T13:25:57.379Z,32.75
2022-10-11T13:28:24.419Z,35.20
2022-10-11T13:30:55.077Z,37.67
2022-10-11T13:33:32.204Z,47.65
2022-10-11T13:36:05.822Z,38.50
2022-10-11T13:38:35.997Z,45.40
2022-10-11T13:41:08.890Z,40.75
2022-10-11T13:43:36.595Z,44.53
2022-10-11T13:46:07.521Z,42.42
2022-10-11T13:48:40.755Z,44.05
2022-10-11T13:51:29.037Z,48.25
2022-10-11T13:54:00.043Z,50.90
2022-10-11T13:56:29.857Z,39.58
2022-10-11T13:58:57.204Z,44.88
2022-10-11T14:01:39.902Z,37.30
2022-10-11T14:04:09.827Z,37.00
2022-10-11T14:07:03.088Z,40.17
2022-10-11T14:09:37.110Z,38.50
2022-10-11T14:12:32.316Z,50.67
2022-10-11T14:15:05.318Z,43.42
2022-10-11T14:17:44.598Z,37.85
2022-10-11T14:20:11.807Z,36.70
2022-10-11T14:22:39.270Z,33.95
2022-10-11T14:25:06.496Z,37.75
2022-10-11T14:27:33.398Z,40.10
2022-10-11T14:30:24.624Z,37.35
2022-10-11T14:32:49.716Z,39.47
2022-10-11T14:35:19.206Z,45.70
2022-10-11T14:37:46.226Z,36.95
2022-10-11T14:40:16.436Z,38.15
2022-10-11T14:42:43.721Z,37.63
2022-10-11T14:45:11.191Z,35.88
2022-10-11T14:47:42.825Z,37.88
2022-10-11T14:50:41.116Z,41.50
2022-10-11T14:53:09.964Z,43.10
2022-10-11T14:55:39.047Z,45.97
2022-10-11T14:58:07.069Z,49.95
2022-10-11T15:00:34.075Z,50.33
2022-10-11T15:03:00.918Z,47.22
2022-10-11T15:05:33.994Z,42.85
2022-10-11T15:08:05.020Z,38.45
2022-10-11T15:10:38.515Z,44.45
2022-10-11T15:13:09.454Z,41.70
2022-10-11T15:15:40.784Z,35.35
2022-10-11T15:18:09.794Z,43.80
2022-10-11T15:20:43.014Z,37.15
2022-10-11T15:23:10.515Z,38.38
2022-10-11T15:25:39.656Z,54.13
2022-10-11T15:28:07.332Z,35.42
2022-10-11T15:30:41.072Z,38.90
2022-10-11T15:33:09.315Z,35.17
2022-10-11T15:35:36.258Z,36.28
2022-10-11T15:38:03.128Z,43.08
2022-10-11T15:40:35.739Z,44.35
2022-10-11T15:43:03.350Z,44.20
2022-10-11T15:45:30.603Z,37.20
2022-10-11T15:47:57.743Z,38.58
2022-10-11T15:50:34.614Z,32.20
2022-10-11T15:53:04.235Z,35.08
2022-10-11T15:55:32.983Z,48.88
2022-10-11T15:58:01.302Z,43.70
2022-10-11T16:00:29.563Z,48.47
2022-10-11T16:02:58.568Z,40.80
2022-10-11T16:05:27.580Z,43.08
2022-10-11T16:07:55.152Z,34.17
2022-10-11T16:10:22.503Z,41.45
2022-10-11T16:12:49.591Z,38.65
2022-10-11T16:15:16.847Z,32.25
2022-10-11T16:17:43.768Z,35.47
2022-10-11T16:20:10.588Z,29.63
2022-10-11T16:22:37.450Z,32.30
2022-10-11T16:25:04.869Z,25.75
2022-10-11T16:27:32.777Z,28.88
2022-10-11T16:30:01.002Z,35.00
2022-10-11T16:32:28.218Z,27.25
2022-10-11T16:34:55.071Z,32.20
2022-10-11T16:37:21.955Z,33.60
2022-10-11T16:39:48.967Z,34.42
2022-10-11T16:42:15.874Z,43.88
2022-10-11T16:44:42.724Z,38.58
2022-10-11T16:47:09.586Z,34.25
2022-10-11T16:49:36.443Z,34.55
2022-10-11T16:52:04.618Z,36.42
2022-10-11T16:54:32.520Z,36.00
2022-10-11T16:57:00.109Z,32.83
2022-10-11T16:59:27.543Z,33.05
2022-10-11T17:01:55.219Z,29.17
2022-10-11T17:04:22.381Z,32.63
2022-10-11T17:06:49.306Z,30.67
2022-10-11T17:09:16.399Z,31.67
2022-10-11T17:11:43.754Z,38.38
2022-10-11T17:14:12.556Z,31.70
2022-10-11T17:16:39.650Z,26.83
2022-10-11T17:19:13.101Z,39.78
2022-10-11T17:21:40.202Z,33.47
2022-10-11T17:24:07.754Z,36.75
2022-10-11T17:26:37.380Z,72.72
2022-10-11T17:29:04.405Z,59.25
2022-10-11T17:31:31.326Z,49.00
2022-10-11T17:34:00.188Z,51.72
2022-10-11T17:36:35.876Z,68.13
2022-10-11T17:39:09.144Z,73.30
2022-10-11T17:41:36.059Z,70.07
2022-10-11T17:44:03.323Z,78.38
2022-10-11T17:46:34.034Z,78.50
2022-10-11T17:49:04.941Z,75.93
2022-10-11T17:51:31.951Z,74.13
2022-10-11T17:53:59.141Z,86.57
2022-10-11T17:56:30.405Z,80.47
2022-10-11T17:58:59.764Z,83.68
2022-10-11T18:01:29.439Z,86.32
2022-10-11T18:04:01.631Z,82.30
2022-10-11T18:06:31.234Z,83.18
2022-10-11T18:09:01.554Z,80.95
2022-10-11T18:11:29.021Z,76.07
2022-10-11T18:13:56.274Z,86.15
2022-10-11T18:16:27.082Z,83.03
2022-10-11T18:18:54.888Z,80.20
2022-10-11T18:21:21.738Z,82.15
2022-10-11T18:23:48.561Z,80.65
2022-10-11T18:26:23.522Z,79.50
2022-10-11T18:28:55.382Z,73.60
2022-10-11T18:31:25.474Z,83.40
2022-10-11T18:33:52.695Z,78.57
2022-10-11T18:36:22.633Z,80.25
2022-10-11T18:38:54.174Z,76.57
2022-10-11T18:41:22.476Z,78.20
2022-10-11T18:43:54.564Z,80.60
2022-10-11T18:46:21.905Z,69.60
2022-10-11T18:48:50.757Z,82.18
2022-10-11T18:51:22.483Z,79.03
2022-10-11T18:53:49.780Z,78.93
2022-10-11T18:56:20.728Z,74.97
2022-10-11T18:58:49.917Z,98.85
2022-10-11T19:01:19.988Z,117.28
2022-10-11T19:03:48.686Z,118.47
2022-10-11T19:06:18.447Z,131.77
2022-10-11T19:08:50.827Z,142.13
2022-10-11T19:11:22.360Z,127.30
2022-10-11T19:13:55.806Z,122.05
2022-10-11T19:16:22.966Z,114.50
2022-10-11T19:18:51.029Z,101.20
2022-10-11T19:21:18.083Z,97.05
2022-10-11T19:23:46.512Z,88.97
2022-10-11T19:26:32.132Z,94.15
2022-10-11T19:29:08.351Z,92.97
2022-10-11T19:31:37.360Z,87.05
2022-10-11T19:34:04.391Z,84.20
2022-10-11T19:36:36.268Z,93.00
2022-10-11T19:39:05.332Z,101.75
2022-10-11T19:41:32.951Z,127.65
2022-10-11T19:43:59.885Z,123.72
2022-10-11T19:46:49.888Z,114.30
2022-10-11T19:49:17.731Z,103.45
2022-10-11T19:51:45.026Z,97.28
2022-10-11T19:54:14.076Z,95.30
2022-10-11T19:56:41.316Z,88.60
2022-10-11T19:59:08.700Z,85.03
2022-10-11T20:01:36.849Z,82.25
2022-10-11T20:04:06.865Z,72.45
2022-10-11T20:06:38.330Z,74.07
2022-10-11T20:09:29.383Z,63.00
2022-10-11T20:11:56.374Z,65.47
2022-10-11T20:14:23.208Z,67.97
2022-10-11T20:16:50.796Z,61.95
2022-10-11T20:19:18.753Z,62.70
2022-10-11T20:21:45.620Z,60.33
2022-10-11T20:24:12.846Z,63.85
2022-10-11T20:26:40.306Z,63.75
2022-10-11T20:29:07.511Z,66.20
2022-10-11T20:31:38.574Z,64.32
2022-10-11T20:34:07.585Z,67.18
2022-10-11T20:36:36.311Z,68.72
2022-10-11T20:39:04.659Z,76.40
2022-10-11T20:41:34.348Z,72.07
2022-10-11T20:44:02.211Z,66.90
2022-10-11T20:46:31.688Z,68.28
2022-10-11T20:49:10.579Z,65.47
2022-10-11T20:51:39.169Z,66.03
2022-10-11T20:54:06.186Z,69.47
2022-10-11T20:56:34.095Z,70.55
2022-10-11T20:59:01.518Z,72.70
2022-10-11T21:01:34.770Z,71.05
2022-10-11T21:04:02.264Z,68.07
2022-10-11T21:06:30.854Z,74.20
2022-10-11T21:08:59.259Z,74.72
2022-10-11T21:11:32.024Z,70.20
2022-10-11T21:14:00.595Z,65.70
2022-10-11T21:16:28.488Z,71.25
2022-10-11T21:18:57.794Z,70.57
2022-10-11T21:21:25.662Z,68.88
2022-10-11T21:23:57.527Z,76.43
2022-10-11T21:26:25.112Z,74.00
2022-10-11T21:28:52.280Z,74.63
2022-10-11T21:31:20.876Z,75.30
2022-10-11T21:33:47.963Z,68.78
2022-10-11T21:36:16.783Z,73.28
2022-10-11T21:38:43.674Z,67.90
2022-10-11T21:41:13.664Z,65.10
2022-10-11T21:43:40.603Z,62.30
2022-10-11T21:46:16.104Z,67.05
2022-10-11T21:48:42.925Z,63.00
2022-10-11T21:51:15.848Z,63.88
2022-10-11T21:53:42.840Z,56.15
2022-10-11T21:56:09.621Z,61.97
2022-10-11T21:58:36.430Z,59.83
2022-10-11T22:01:03.502Z,73.72
2022-10-11T22:03:30.483Z,64.85
2022-10-11T22:05:57.401Z,67.72
2022-10-11T22:08:24.286Z,63.30
2022-10-11T22:10:56.544Z,58.53
2022-10-11T22:13:24.275Z,61.25
2022-10-11T22:15:51.185Z,66.53
2022-10-11T22:18:18.237Z,63.08
2022-10-11T22:20:45.243Z,64.95
2022-10-11T22:23:12.274Z,61.60
2022-10-11T22:25:39.997Z,63.22
2022-10-11T22:28:07.755Z,68.47
2022-10-11T22:33:33.519Z,63.67
2022-10-11T22:36:02.490Z,61.60
2022-10-11T22:38:29.365Z,64.22
2022-10-11T22:40:58.741Z,71.45
2022-10-11T22:43:25.665Z,70.35
2022-10-11T22:45:52.631Z,65.93
2022-10-11T22:48:19.804Z,65.25
2022-10-11T22:50:46.958Z,63.63
2022-10-11T22:53:14.411Z,60.13
2022-10-11T22:55:42.188Z,65.68
2022-10-11T22:58:09.310Z,68.60
2022-10-11T23:00:36.311Z,60.40
2022-10-11T23:03:03.157Z,61.78
2022-10-11T23:05:30.054Z,57.17
2022-10-11T23:07:56.865Z,65.18
2022-10-11T23:10:23.726Z,57.67
2022-10-11T23:12:50.544Z,64.40
2022-10-11T23:15:17.490Z,56.33
2022-10-11T23:17:44.422Z,56.58
2022-10-11T23:20:11.834Z,61.00
2022-10-11T23:22:38.646Z,62.05
2022-10-11T23:25:06.223Z,58.38
2022-10-11T23:27:33.066Z,59.33
2022-10-11T23:29:59.884Z,60.33
2022-10-11T23:32:26.783Z,60.50
2022-10-11T23:34:53.633Z,61.58
2022-10-11T23:37:20.943Z,55.72
2022-10-11T23:39:47.851Z,62.83
2022-10-11T23:42:14.746Z,58.33
2022-10-11T23:44:41.684Z,62.65
2022-10-11T23:47:08.793Z,59.30
2022-10-11T23:49:35.574Z,63.65
2022-10-11T23:52:02.526Z,59.40
2022-10-11T23:54:29.481Z,57.17
2022-10-11T23:56:56.296Z,59.20
2022-10-11T23:59:26.418Z,57.63
